Time;durP1;ratioP1;P1;durP2;ratioP2;P2;SDS_P1;SDS_P2;PMS_P1;PMS_P2;Temp;Humidity;BMP_temperature;BMP_pressure;BME280_temperature;BME280_humidity;BME280_pressure;Samples;Min_cycle;Max_cycle;Signal;HPM_P1;HPM_P2
2021/10/27 00:03:58;;;;;;;9.30;4.40;;;;;;;8.14;66.54;100720.53;10347158;28;20049;-64
2021/10/27 00:09:00;;;;;;;12.68;4.63;;;;;;;8.39;66.33;100720.47;10347024;28;20042;-64
2021/10/27 00:14:02;;;;;;;10.38;4.88;;;;;;;8.61;66.28;100724.78;10344478;28;20517;-64
2021/10/27 00:19:04;;;;;;;8.18;4.60;;;;;;;8.77;65.83;100722.44;10345758;28;20057;-64
2021/10/27 00:24:05;;;;;;;7.35;4.30;;;;;;;8.58;66.23;100724.06;10377612;28;20081;-64
2021/10/27 00:29:07;;;;;;;10.77;4.65;;;;;;;8.65;66.60;100723.75;10344291;28;20068;-64
2021/10/27 00:34:09;;;;;;;13.50;6.35;;;;;;;8.74;65.98;100731.22;10343817;28;20080;-64
2021/10/27 00:39:11;;;;;;;11.80;6.30;;;;;;;8.70;66.32;100734.00;10345610;28;20075;-64
2021/10/27 00:44:21;;;;;;;12.40;5.85;;;;;;;8.77;66.35;100725.06;10344367;28;20451;-64
2021/10/27 00:49:23;;;;;;;9.63;4.60;;;;;;;8.78;66.25;100742.38;10345332;28;20049;-64
2021/10/27 00:54:26;;;;;;;10.57;5.60;;;;;;;8.75;66.39;100737.31;10342879;28;20050;-65
2021/10/27 00:59:29;;;;;;;9.98;5.53;;;;;;;8.77;66.25;100738.09;10343728;28;20060;-64
2021/10/27 01:04:31;;;;;;;12.50;5.95;;;;;;;8.67;66.24;100739.34;10344323;28;20046;-63
2021/10/27 01:09:33;;;;;;;14.57;6.78;;;;;;;8.47;66.79;100742.72;10344406;28;20216;-65
2021/10/27 01:14:41;;;;;;;12.32;6.20;;;;;;;8.45;67.29;100748.91;10342777;28;20502;-66
2021/10/27 01:19:50;;;;;;;12.55;5.97;;;;;;;8.49;67.24;100737.44;10344562;28;20129;-66
2021/10/27 01:24:55;;;;;;;11.98;6.35;;;;;;;8.53;67.11;100732.06;10342992;28;20050;-67
2021/10/27 01:29:57;;;;;;;12.65;5.75;;;;;;;8.65;66.76;100728.13;10341928;28;20049;-66
2021/10/27 01:35:00;;;;;;;11.43;5.70;;;;;;;8.58;66.91;100732.75;10343771;28;20236;-66
2021/10/27 01:40:02;;;;;;;14.82;6.35;;;;;;;8.65;66.83;100735.94;10344266;28;20439;-64
2021/10/27 01:45:05;;;;;;;11.50;6.10;;;;;;;8.72;66.51;100721.75;10342475;28;20054;-66
2021/10/27 01:50:07;;;;;;;14.00;6.53;;;;;;;8.82;66.49;100720.47;10343448;28;20089;-66
2021/10/27 01:55:09;;;;;;;11.05;6.63;;;;;;;8.91;66.26;100733.16;10348750;28;20495;-66
2021/10/27 02:00:12;;;;;;;12.95;6.63;;;;;;;8.82;66.49;100723.94;10350802;28;20049;-66
2021/10/27 02:05:14;;;;;;;15.45;6.78;;;;;;;8.85;66.49;100720.38;10358417;28;20141;-64
2021/10/27 02:10:15;;;;;;;11.40;6.82;;;;;;;8.87;66.54;100725.53;10358344;28;20042;-66
2021/10/27 02:15:17;;;;;;;15.10;6.38;;;;;;;8.88;66.49;100727.19;10357866;28;20057;-66
2021/10/27 02:20:19;;;;;;;10.57;5.40;;;;;;;8.85;66.48;100718.59;10358960;28;20058;-66
2021/10/27 02:25:20;;;;;;;14.25;6.25;;;;;;;8.88;66.54;100715.03;10357040;28;20124;-66
2021/10/27 02:30:24;;;;;;;10.55;6.35;;;;;;;8.92;66.41;100707.91;10357796;28;20045;-63
2021/10/27 02:35:25;;;;;;;11.93;7.07;;;;;;;8.75;66.74;100711.22;10356377;28;20088;-66
2021/10/27 02:40:27;;;;;;;11.57;6.75;;;;;;;8.78;66.64;100711.09;10357592;28;20045;-65
2021/10/27 02:45:29;;;;;;;13.15;6.53;;;;;;;8.75;67.00;100716.44;10356664;28;20046;-66
2021/10/27 02:50:30;;;;;;;11.73;6.50;;;;;;;8.75;67.10;100724.25;10357138;28;20689;-66
2021/10/27 02:55:32;;;;;;;12.48;6.65;;;;;;;8.92;66.77;100715.72;10357044;28;20148;-66
2021/10/27 03:00:34;;;;;;;15.65;6.30;;;;;;;8.96;66.58;100720.78;10357064;28;20050;-64
2021/10/27 03:05:36;;;;;;;14.25;6.78;;;;;;;9.03;66.60;100716.16;10350615;28;20054;-66
2021/10/27 03:10:38;;;;;;;12.95;7.72;;;;;;;9.10;66.44;100722.81;10350418;28;20072;-66
2021/10/27 03:15:39;;;;;;;11.45;6.97;;;;;;;9.12;66.25;100718.38;10348411;28;20065;-67
2021/10/27 03:20:41;;;;;;;11.80;7.63;;;;;;;9.21;66.12;100715.41;10346972;28;20053;-66
2021/10/27 03:25:43;;;;;;;12.65;7.60;;;;;;;9.26;66.12;100703.03;10347999;28;20050;-66
2021/10/27 03:30:45;;;;;;;11.57;6.95;;;;;;;9.34;65.93;100711.38;10348336;28;20049;-66
2021/10/27 03:35:47;;;;;;;10.60;6.43;;;;;;;9.26;66.11;100716.06;10347143;28;20483;-66
2021/10/27 03:40:49;;;;;;;11.32;6.60;;;;;;;9.30;65.86;100726.28;10348478;28;20053;-66
2021/10/27 03:45:50;;;;;;;12.60;6.70;;;;;;;9.26;66.25;100719.50;10347865;28;20048;-66
2021/10/27 03:50:52;;;;;;;14.73;6.47;;;;;;;9.26;66.11;100726.50;10346703;28;20439;-66
2021/10/27 03:55:55;;;;;;;10.60;6.70;;;;;;;9.19;66.50;100730.28;10378911;28;20054;-66
2021/10/27 04:00:56;;;;;;;15.50;7.10;;;;;;;9.21;66.40;100731.91;10347303;28;20050;-66
2021/10/27 04:05:58;;;;;;;12.93;6.43;;;;;;;9.31;66.15;100741.06;10347722;28;20085;-66
2021/10/27 04:11:00;;;;;;;10.77;6.72;;;;;;;9.36;66.31;100744.31;10345605;28;20148;-66
2021/10/27 04:16:02;;;;;;;11.27;6.90;;;;;;;9.42;66.00;100743.22;10345934;28;20068;-65
2021/10/27 04:21:04;;;;;;;14.48;7.68;;;;;;;9.42;65.71;100746.66;10346221;28;20437;-66
2021/10/27 04:26:06;;;;;;;15.88;6.88;;;;;;;9.32;65.96;100745.34;10346047;28;20050;-66
2021/10/27 04:31:08;;;;;;;12.55;6.43;;;;;;;9.22;66.44;100749.25;10344761;28;20407;-66
2021/10/27 04:36:09;;;;;;;12.77;6.10;;;;;;;9.15;66.61;100754.81;10344951;28;20050;-67
2021/10/27 04:41:11;;;;;;;12.40;6.75;;;;;;;9.26;66.41;100760.44;10346211;28;20052;-67
2021/10/27 04:46:13;;;;;;;13.50;6.65;;;;;;;9.31;66.29;100763.69;10346067;28;20097;-67
2021/10/27 04:51:15;;;;;;;16.02;7.05;;;;;;;9.36;66.03;100765.19;10345452;28;20142;-67
2021/10/27 04:56:16;;;;;;;12.98;7.05;;;;;;;9.42;66.13;100766.72;10345449;28;20053;-67
2021/10/27 05:01:18;;;;;;;17.02;7.72;;;;;;;9.49;66.02;100769.00;10343525;28;20075;-67
2021/10/27 05:06:20;;;;;;;11.77;6.53;;;;;;;9.46;65.93;100760.47;10345247;28;20097;-66
2021/10/27 05:11:22;;;;;;;12.23;7.78;;;;;;;9.52;66.01;100762.81;10344912;28;20049;-66
2021/10/27 05:16:23;;;;;;;13.45;7.78;;;;;;;9.52;66.13;100768.84;10345072;28;20313;-66
2021/10/27 05:21:25;;;;;;;13.45;7.50;;;;;;;9.46;66.22;100770.91;10344678;28;20133;-66
2021/10/27 05:26:27;;;;;;;12.95;7.10;;;;;;;9.45;66.27;100767.44;10344528;28;20136;-66
2021/10/27 05:31:33;;;;;;;12.85;6.95;;;;;;;9.41;66.31;100768.47;10343493;28;20351;-67
2021/10/27 05:36:35;;;;;;;11.57;6.13;;;;;;;9.34;66.80;100774.84;10341774;28;20383;-67
2021/10/27 05:41:39;;;;;;;14.18;7.80;;;;;;;9.43;66.63;100774.47;10343375;28;20553;-67
2021/10/27 05:46:44;;;;;;;12.10;6.95;;;;;;;9.45;66.65;100766.59;10342230;28;20141;-68
2021/10/27 05:51:52;;;;;;;12.05;6.90;;;;;;;9.52;66.40;100773.25;10342075;28;20430;-67
2021/10/27 05:56:54;;;;;;;13.10;7.85;;;;;;;9.41;66.55;100767.63;10343393;28;20426;-66
2021/10/27 06:01:56;;;;;;;12.85;7.47;;;;;;;9.48;66.54;100772.50;10343301;28;20046;-67
2021/10/27 06:06:58;;;;;;;12.57;6.60;;;;;;;9.53;66.45;100770.56;10342273;28;20133;-67
2021/10/27 06:12:03;;;;;;;14.93;7.10;;;;;;;9.61;66.29;100758.03;10342770;28;20499;-68
2021/10/27 06:17:05;;;;;;;16.27;9.60;;;;;;;9.61;66.25;100762.41;10341734;28;20093;-67
2021/10/27 06:22:09;;;;;;;12.60;7.10;;;;;;;9.57;66.25;100756.47;10344172;28;20050;-67
2021/10/27 06:27:11;;;;;;;12.07;8.07;;;;;;;9.32;66.84;100765.41;10342625;28;20068;-67
2021/10/27 06:47:56;;;;;;;13.77;7.75;;;;;;;9.28;67.68;100774.28;10348571;28;20054;-68
2021/10/27 06:52:58;;;;;;;14.48;8.00;;;;;;;9.50;67.33;100788.97;10349427;28;20051;-67
2021/10/27 06:58:00;;;;;;;16.73;7.85;;;;;;;9.70;67.04;100792.53;10349695;28;20145;-67
2021/10/27 07:18:44;;;;;;;18.27;7.45;;;;;;;9.84;67.13;100832.00;10389077;28;20084;-67
2021/10/27 07:23:46;;;;;;;14.63;7.55;;;;;;;9.96;66.87;100836.69;10388112;28;20482;-67
2021/10/27 07:28:52;;;;;;;14.32;8.00;;;;;;;10.09;66.61;100840.50;10387768;28;20056;-67
2021/10/27 07:33:59;;;;;;;16.77;9.63;;;;;;;10.18;66.38;100832.22;10388079;28;20048;-66
2021/10/27 07:44:26;;;;;;;14.47;8.80;;;;;;;10.32;66.46;100840.31;10387825;28;20414;-67
2021/10/27 07:49:27;;;;;;;12.35;8.68;;;;;;;10.50;66.51;100848.19;10387645;28;20064;-68
2021/10/27 07:54:30;;;;;;;15.25;7.32;;;;;;;10.49;66.40;100856.13;10384888;28;20045;-67
2021/10/27 07:59:32;;;;;;;13.85;8.07;;;;;;;10.65;66.34;100859.72;10386586;28;20328;-67
2021/10/27 08:04:35;;;;;;;14.85;8.18;;;;;;;10.75;65.93;100842.69;10387072;28;20539;-67
2021/10/27 08:09:37;;;;;;;12.10;7.35;;;;;;;10.84;65.51;100842.28;10386506;28;20052;-67
2021/10/27 08:14:39;;;;;;;11.20;6.88;;;;;;;11.10;65.18;100841.94;10386793;28;20144;-67
2021/10/27 08:19:54;;;;;;;11.50;8.07;;;;;;;11.48;64.77;100834.00;10385485;28;20123;-67
2021/10/27 08:24:56;;;;;;;13.32;8.13;;;;;;;11.55;64.58;100831.00;10385569;28;20053;-67
2021/10/27 08:30:07;;;;;;;13.30;7.47;;;;;;;11.75;64.02;100833.47;10384333;28;20045;-66
2021/10/27 08:35:13;;;;;;;12.13;7.03;;;;;;;12.08;63.23;100820.44;10387473;28;20082;-70
2021/10/27 08:40:19;;;;;;;11.10;6.10;;;;;;;12.33;62.78;100828.75;10383513;28;20215;-72
2021/10/27 08:45:23;;;;;;;11.38;6.40;;;;;;;12.61;62.16;100815.00;10385000;28;20466;-72
2021/10/27 08:50:25;;;;;;;12.98;7.03;;;;;;;12.95;61.67;100827.97;10386142;28;20417;-72
2021/10/27 08:55:27;;;;;;;12.52;6.55;;;;;;;13.18;61.11;100827.53;10384498;28;20249;-74
2021/10/27 09:00:39;;;;;;;16.00;7.70;;;;;;;13.17;60.95;100827.63;10384233;28;20140;-73
2021/10/27 09:37:35;;;;;;;9.17;4.93;;;;;;;14.59;59.69;100799.78;10382982;28;20068;-73
2021/10/27 09:55:28;;;;;;;7.70;3.88;;;;;;;15.05;58.16;100802.13;10384300;28;20059;-71
2021/10/27 10:04:16;;;;;;;;;;;;;;;15.27;57.18;100800.66;10384361;28;20042;-72
2021/10/27 10:09:28;;;;;;;7.10;2.78;;;;;;;15.82;56.63;100794.38;10384720;28;19991;-72
2021/10/27 10:14:29;;;;;;;4.53;2.58;;;;;;;16.01;56.19;100800.09;10387560;28;20060;-72
2021/10/27 10:19:38;;;;;;;5.65;3.00;;;;;;;16.22;54.63;100801.25;10375937;28;20111;-72
2021/10/27 10:24:40;;;;;;;6.28;3.30;;;;;;;16.31;55.14;100797.13;10391945;28;20490;-72
2021/10/27 10:29:48;;;;;;;4.70;2.42;;;;;;;16.51;54.32;100786.88;10391451;28;20574;-71
2021/10/27 10:34:55;;;;;;;5.55;2.10;;;;;;;16.58;53.82;100789.94;10391929;28;20053;-71
2021/10/27 10:40:01;;;;;;;7.07;2.97;;;;;;;16.79;53.17;100794.50;10392744;28;20600;-72
2021/10/27 10:45:37;;;;;;;4.43;2.00;;;;;;;16.87;52.54;100794.00;10391675;28;20544;-71
2021/10/27 11:23:33;;;;;;;4.97;1.40;;;;;;;17.00;49.12;100752.50;10380793;28;20390;-71
2021/10/27 11:49:59;;;;;;;4.90;1.98;;;;;;;17.14;46.82;100735.63;10388864;28;20045;-72
2021/10/27 11:55:03;;;;;;;3.70;1.38;;;;;;;16.79;47.43;100725.00;10389480;28;20567;-73
2021/10/27 12:00:20;;;;;;;2.85;1.30;;;;;;;16.91;47.26;100729.41;10388769;28;20509;-72
2021/10/27 12:05:28;;;;;;;2.65;1.40;;;;;;;16.69;47.92;100721.34;10388333;28;20450;-72
2021/10/27 12:10:43;;;;;;;4.15;1.35;;;;;;;16.83;47.85;100710.63;10388947;28;20494;-72
2021/10/27 12:16:05;;;;;;;3.95;1.50;;;;;;;17.01;47.25;100703.97;10387416;28;20506;-71
2021/10/27 12:21:08;;;;;;;4.10;1.30;;;;;;;17.07;47.28;100692.94;10388822;28;20050;-72
2021/10/27 12:26:12;;;;;;;2.85;1.42;;;;;;;17.28;47.34;100696.59;10388530;28;20054;-71
2021/10/27 12:31:22;;;;;;;3.78;1.30;;;;;;;17.27;46.35;100680.88;10387566;28;20128;-72
2021/10/27 12:36:27;;;;;;;6.07;1.80;;;;;;;17.67;46.91;100667.16;10387380;28;20136;-72
2021/10/27 12:41:29;;;;;;;2.50;1.10;;;;;;;17.74;46.17;100662.25;10386747;28;20045;-71
2021/10/27 12:46:30;;;;;;;5.00;1.50;;;;;;;17.74;46.18;100662.25;10386460;28;20052;-72
2021/10/27 12:51:33;;;;;;;3.53;1.40;;;;;;;17.74;46.97;100662.25;10387343;28;20216;-72
2021/10/27 12:56:43;;;;;;;5.75;1.40;;;;;;;17.89;46.66;100658.41;10386930;28;20194;-71
2021/10/27 13:01:51;;;;;;;4.50;1.30;;;;;;;17.69;46.88;100648.50;10386165;28;20053;-71
2021/10/27 13:22:33;;;;;;;2.58;1.30;;;;;;;17.18;47.34;100641.94;10386418;28;20079;-72
2021/10/27 13:32:57;;;;;;;4.57;1.50;;;;;;;17.14;47.75;100630.72;10385684;28;20049;-71
2021/10/27 13:38:03;;;;;;;2.30;1.30;;;;;;;17.09;47.93;100627.59;10384258;28;20132;-71
2021/10/27 13:43:12;;;;;;;4.45;1.60;;;;;;;16.96;47.74;100627.69;10385894;28;20049;-72
2021/10/27 13:48:23;;;;;;;3.85;1.42;;;;;;;17.17;48.18;100627.88;10385169;28;20061;-71
2021/10/27 14:09:41;;;;;;;3.25;1.30;;;;;;;16.99;48.44;100623.97;10385286;28;20064;-71
2021/10/27 15:29:49;;;;;;;3.92;2.00;;;;;;;16.22;51.06;100584.84;10390300;28;20053;-71
2021/10/27 15:35:31;;;;;;;5.13;1.90;;;;;;;16.17;51.93;100577.25;10388920;28;20060;-71
2021/10/27 15:50:50;;;;;;;5.03;2.35;;;;;;;15.66;52.81;100580.97;10388824;28;20052;-70
2021/10/27 15:55:52;;;;;;;4.82;2.25;;;;;;;15.51;53.21;100583.84;10389261;28;20064;-71
2021/10/27 16:00:54;;;;;;;4.82;2.40;;;;;;;15.35;52.86;100579.59;10389303;28;20099;-71
2021/10/27 16:05:57;;;;;;;4.47;2.22;;;;;;;15.11;53.80;100588.34;10388142;28;20053;-71
2021/10/27 16:10:59;;;;;;;4.50;2.15;;;;;;;14.92;54.13;100580.00;10387609;28;20056;-71
2021/10/27 16:16:01;;;;;;;5.10;2.70;;;;;;;14.91;54.62;100589.69;10388786;28;20061;-71
2021/10/27 16:21:04;;;;;;;7.80;3.40;;;;;;;14.83;55.21;100591.16;10388776;28;20053;-71
2021/10/27 16:26:05;;;;;;;8.35;3.95;;;;;;;14.79;55.45;100589.66;10388479;28;20136;-71
2021/10/27 16:31:08;;;;;;;5.75;3.65;;;;;;;14.73;55.90;100585.66;10388425;28;20069;-71
2021/10/27 16:36:11;;;;;;;4.95;2.60;;;;;;;14.57;56.27;100577.91;10387947;28;20088;-71
2021/10/27 16:41:13;;;;;;;6.82;2.40;;;;;;;14.47;56.45;100581.25;10387799;28;20140;-71
2021/10/27 16:46:14;;;;;;;5.10;2.10;;;;;;;14.31;56.74;100580.53;10386746;28;20405;-71
2021/10/27 16:51:17;;;;;;;5.63;2.22;;;;;;;14.16;57.41;100582.38;10387188;28;20136;-71
2021/10/27 16:56:20;;;;;;;6.57;2.47;;;;;;;13.98;57.68;100593.22;10387290;28;20537;-71
2021/10/27 17:01:22;;;;;;;5.60;2.75;;;;;;;13.77;57.92;100590.16;10385001;28;20055;-71
2021/10/27 17:06:25;;;;;;;5.43;2.60;;;;;;;13.52;58.43;100589.97;10385080;28;20103;-71
2021/10/27 17:11:26;;;;;;;6.57;2.60;;;;;;;13.33;58.97;100595.47;10386828;28;20072;-71
2021/10/27 17:16:32;;;;;;;8.00;3.47;;;;;;;13.13;59.55;100595.00;10386503;28;20061;-72
2021/10/27 17:21:35;;;;;;;7.05;3.58;;;;;;;12.98;59.77;100602.81;10385689;28;20397;-71
2021/10/27 17:26:36;;;;;;;10.63;5.85;;;;;;;12.78;60.45;100594.44;10385238;28;20063;-71
2021/10/27 17:31:39;;;;;;;13.40;6.68;;;;;;;12.70;60.57;100597.50;10383932;28;20056;-71
2021/10/27 17:36:41;;;;;;;16.88;7.50;;;;;;;12.36;61.55;100594.25;10385166;28;20157;-72
2021/10/27 17:41:47;;;;;;;11.55;6.32;;;;;;;12.25;62.02;100605.34;10386198;28;20131;-72
2021/10/27 17:46:54;;;;;;;14.52;9.38;;;;;;;12.08;62.55;100603.66;10385732;28;20497;-72
2021/10/27 17:52:12;;;;;;;14.25;9.25;;;;;;;11.96;62.87;100599.09;10385080;28;20412;-71
2021/10/27 18:02:40;;;;;;;12.45;7.97;;;;;;;11.57;63.89;100601.25;10385049;28;20099;-72
2021/10/27 18:07:43;;;;;;;13.40;9.07;;;;;;;11.54;63.97;100600.56;10383576;28;20053;-71
2021/10/27 18:12:44;;;;;;;15.23;7.97;;;;;;;11.50;64.07;100593.78;10384790;28;20038;-72
2021/10/27 18:17:46;;;;;;;16.05;9.43;;;;;;;11.37;64.65;100593.59;10385022;28;20705;-72
2021/10/27 18:23:23;;;;;;;15.98;9.40;;;;;;;11.28;64.73;100601.91;10384796;28;20087;-71
2021/10/27 18:43:47;;;;;;;11.60;5.35;;;;;;;10.98;65.83;100595.59;10390448;28;20057;-72
2021/10/27 18:48:50;;;;;;;12.35;5.38;;;;;;;10.94;65.88;100592.31;10390037;28;20053;-72
2021/10/27 19:15:06;;;;;;;11.13;4.90;;;;;;;10.55;66.18;100586.44;10389005;28;20061;-72
2021/10/27 19:20:08;;;;;;;10.90;5.00;;;;;;;10.53;66.26;100583.06;10388813;28;20104;-73
2021/10/27 20:54:54;;;;;;;11.75;7.85;;;;;;;8.92;67.83;100582.69;10386817;28;20046;-75
2021/10/27 21:00:09;;;;;;;14.27;8.90;;;;;;;8.92;67.86;100591.38;10386012;28;20421;-74
2021/10/27 21:15:52;;;;;;;23.23;13.23;;;;;;;8.69;67.88;100591.47;10382532;28;20487;-75
2021/10/27 21:20:54;;;;;;;14.57;9.77;;;;;;;8.65;68.18;100584.69;10385676;28;20045;-74
2021/10/27 21:25:59;;;;;;;15.40;8.80;;;;;;;8.64;68.13;100583.88;10381202;28;20047;-74
2021/10/27 21:46:44;;;;;;;15.25;8.98;;;;;;;8.52;68.02;100573.09;10384232;28;20053;-74
2021/10/27 21:51:46;;;;;;;18.65;8.95;;;;;;;8.43;67.85;100573.47;10384407;28;20053;-74
2021/10/27 21:56:47;;;;;;;20.27;9.95;;;;;;;8.33;67.44;100572.16;10384309;28;20060;-74
2021/10/27 22:01:52;;;;;;;18.90;9.02;;;;;;;8.18;67.85;100568.38;10381474;28;20049;-65
2021/10/27 22:06:53;;;;;;;28.83;10.35;;;;;;;8.14;67.92;100566.00;10380574;28;20041;-65
2021/10/27 22:11:57;;;;;;;29.25;9.55;;;;;;;8.08;68.01;100566.19;10387026;28;20153;-65
2021/10/27 22:16:58;;;;;;;151.73;14.43;;;;;;;7.93;68.34;100554.63;10388173;28;20188;-66
2021/10/27 22:22:05;;;;;;;166.13;15.68;;;;;;;7.91;68.50;100546.88;10384997;28;20371;-66
2021/10/27 22:27:08;;;;;;;132.02;13.88;;;;;;;7.92;68.23;100545.94;10389170;28;20478;-66
2021/10/27 22:32:10;;;;;;;61.75;12.57;;;;;;;7.83;68.35;100548.06;10391955;28;20813;-66
2021/10/27 22:37:11;;;;;;;188.02;16.95;;;;;;;7.83;68.40;100543.69;10391047;28;20049;-66
2021/10/27 22:42:15;;;;;;;163.25;14.02;;;;;;;7.84;68.61;100545.41;10387706;28;20045;-65
2021/10/27 22:47:17;;;;;;;168.60;13.93;;;;;;;7.97;68.28;100548.38;10391833;28;20462;-65
2021/10/27 22:52:20;;;;;;;39.50;9.90;;;;;;;8.16;68.08;100538.94;10390501;28;20053;-65
2021/10/27 22:57:22;;;;;;;55.85;10.27;;;;;;;8.33;67.69;100538.25;10390211;28;20144;-66
2021/10/27 23:02:33;;;;;;;104.50;12.48;;;;;;;8.41;67.28;100528.38;10390841;28;20053;-66
2021/10/27 23:08:04;;;;;;;78.47;9.93;;;;;;;8.49;67.29;100528.91;10391576;28;20049;-66
2021/10/27 23:40:03;;;;;;;170.97;13.03;;;;;;;8.78;66.93;100529.38;10388811;28;20136;-65
2021/10/27 23:45:12;;;;;;;234.88;16.23;;;;;;;8.84;67.00;100520.44;10389029;28;20049;-66
